MSC Maria Saveria — 3FLE8 — position and weather

sailwx.info

Track history (hours):
 
Tides and Currents Weather Stations Pressure Air Temp Water Temp Dewpoint Dewpoint Depression Visibility Wind Speed Wind Dir Waves Ship Positions

MSC Maria Saveria

Last reported at 2017-May-27 15:30 UTC. Time now 2017-May-27 15:37 UTC.
Position N 53°32' E 009°54'.

Length 366 m; draft 13 m.

Type: Ship (hazmat cat A). MMSI: 372400000.

Date/timePositionNaut miles runAvg speedWind from/ knotsBaromVisibWave heightAir tempDewpointWater temp
2017-May-27 15:30N 53°32' E 009°54'0 0.0
2017-May-27 15:00N 53°32' E 009°54'0 0.0
2017-May-27 14:30N 53°32' E 009°54'0 0.0
2017-May-27 13:30N 53°32' E 009°54'0 0.0
2017-May-27 13:00N 53°32' E 009°54'0 0.0
2017-May-27 12:30N 53°32' E 009°54'0 0.0
2017-May-27 12:00N 53°32' E 009°54'0 0.0
2017-May-27 11:30N 53°32' E 009°54'0 0.0
2017-May-27 11:00N 53°32' E 009°54'0 0.0
2017-May-27 10:30N 53°32' E 009°54'0 0.0
2017-May-27 10:00N 53°32' E 009°54'0 0.0
2017-May-27 09:30N 53°32' E 009°54'0 0.0
2017-May-27 09:00N 53°32' E 009°54'0 0.0
2017-May-27 08:30N 53°32' E 009°54'0 0.0
2017-May-27 08:00N 53°32' E 009°54'0 0.0
2017-May-27 07:30N 53°32' E 009°54'0 0.0
2017-May-27 07:00N 53°32' E 009°54'0 0.0
2017-May-27 06:30N 53°32' E 009°54'0 0.0
2017-May-27 06:00N 53°32' E 009°54'0 0.0
2017-May-27 05:30N 53°32' E 009°54'0 0.0
2017-May-27 05:00N 53°32' E 009°54'0 0.0
2017-May-27 04:30N 53°32' E 009°54'0 0.0
2017-May-27 04:00N 53°32' E 009°54'0 0.0
2017-May-27 03:29N 53°32' E 009°54'0 0.0
2017-May-27 03:00N 53°32' E 009°54'0 0.0
2017-May-27 02:30N 53°32' E 009°54'0 0.0
2017-May-27 02:00N 53°32' E 009°54'0 0.0
2017-May-27 01:30N 53°32' E 009°54'0 0.0
2017-May-27 01:00N 53°32' E 009°54'0 0.0
2017-May-27 00:30N 53°32' E 009°54'0 0.0
2017-May-27 00:00N 53°32' E 009°54'0 0.0
2017-May-26 23:30N 53°32' E 009°54'0 0.0
2017-May-26 23:00N 53°32' E 009°54'0 0.0
2017-May-26 22:30N 53°32' E 009°54'0 0.0
2017-May-26 22:00N 53°32' E 009°54'0 0.0
2017-May-26 21:30N 53°32' E 009°54'0 0.0
2017-May-26 21:00N 53°32' E 009°54'0 0.0
2017-May-26 20:29N 53°32' E 009°54'0 0.0
2017-May-26 20:00N 53°32' E 009°54'0 0.0
2017-May-26 19:30N 53°32' E 009°54'0 0.0
2017-May-26 19:00N 53°32' E 009°54'0 0.0
2017-May-26 18:30N 53°32' E 009°54'0 0.0
2017-May-26 18:00N 53°32' E 009°54'0 0.0
2017-May-26 17:30N 53°32' E 009°54'0 0.6
2017-May-26 17:01N 53°32' E 009°54'2 3.6
2017-May-26 16:30N 53°33' E 009°51'4 8.3
2017-May-26 16:00N 53°34' E 009°44'4 8.0
2017-May-26 15:31N 53°35' E 009°38'611.8
2017-May-26 15:00N 53°39' E 009°31'714.1
2017-May-26 14:31N 53°45' E 009°25'1313.2
2017-May-26 13:30N 53°53' E 009°07'714.5
2017-May-26 13:00N 53°51' E 008°55'713.3
2017-May-26 12:30N 53°52' E 008°44'815.9
2017-May-26 12:00N 53°58' E 008°35'917.4
2017-May-26 11:29N 53°59' E 008°20'816.9
2017-May-26 11:00N 53°59' E 008°06'712.8
2017-May-26 10:27N 53°58' E 007°54'3 5.0
2017-May-26 09:54N 54°01' E 007°52'0 0.5
2017-May-26 09:30N 54°01' E 007°52'1 1.2
2017-May-26 08:50N 54°01' E 007°50'0 1.1
2017-May-26 08:28N 54°01' E 007°50'0 1.0
2017-May-26 08:00N 54°01' E 007°49'0 0.6
2017-May-26 07:30N 54°00' E 007°49'1 1.4
2017-May-26 07:00N 53°60' E 007°49'5 5.0
2017-May-26 06:02N 53°56' E 007°43'0 6.0
2017-May-26 06:00N 53°56' E 007°43'815.0
2017-May-26 05:27N 53°55' E 007°29'1119.5
2017-May-26 04:53N 53°53' E 007°11'819.2
2017-May-26 04:30N 53°51' E 006°58'918.2
2017-May-26 04:00N 53°49' E 006°44'918.2
2017-May-26 03:29N 53°46' E 006°28'919.1
2017-May-26 03:00N 53°44' E 006°13'1019.3
2017-May-26 02:30N 53°40' E 005°58'1119.4
2017-May-26 01:56N 53°37' E 005°40'819.1
2017-May-26 01:31N 53°35' E 005°27'918.2
2017-May-26 01:00N 53°33' E 005°12'919.0
2017-May-26 00:30N 53°29' E 004°57'1019.5
2017-May-26 00:01N 53°24' E 004°43'1019.6
2017-May-25 23:31N 53°15' E 004°36'1019.9
2017-May-25 23:01N 53°07' E 004°27'1019.9
2017-May-25 22:30N 52°58' E 004°19'1019.6
2017-May-25 22:00N 52°49' E 004°12'1019.1
2017-May-25 21:31N 52°42' E 004°02'1019.5
2017-May-25 21:01N 52°36' E 003°50'1019.2
2017-May-25 20:31N 52°28' E 003°39'1219.4
2017-May-25 19:53N 52°19' E 003°26'819.3
2017-May-25 19:28N 52°14' E 003°17'919.6
2017-May-25 19:00N 52°07' E 003°06'1019.9
2017-May-25 18:31N 51°60' E 002°56'1019.8
2017-May-25 18:01N 51°54' E 002°43'1121.0
2017-May-25 17:31N 51°54' E 002°26'1121.6
2017-May-25 17:00N 51°52' E 002°09'1121.4
2017-May-25 16:31N 51°49' E 001°53'918.7
2017-May-25 16:01N 51°52' E 001°38'5 9.8
2017-May-25 15:31N 51°55' E 001°33'713.9
2017-May-25 15:00N 51°56' E 001°22'3 6.6
2017-May-25 14:31N 51°57' E 001°18'0 0.2
2017-May-25 13:30N 51°58' E 001°17'0 0.0
2017-May-25 13:00N 51°58' E 001°17'0 0.0
2017-May-25 12:30N 51°58' E 001°17'0 0.0
2017-May-25 12:00N 51°58' E 001°17'0 0.0
2017-May-25 11:30N 51°58' E 001°17'0 0.0
2017-May-25 11:00N 51°58' E 001°17'0 0.0
2017-May-25 10:30N 51°58' E 001°17'0 0.0
2017-May-25 10:00N 51°58' E 001°17'0 0.0
2017-May-25 09:30N 51°58' E 001°17'0 0.0
2017-May-25 09:00N 51°58' E 001°17'0 0.0
2017-May-25 08:30N 51°58' E 001°17'0 0.0
2017-May-25 08:00N 51°58' E 001°17'0 0.0
2017-May-25 07:30N 51°58' E 001°17'0 0.0
2017-May-25 07:00N 51°58' E 001°17'0 0.0
2017-May-25 06:30N 51°58' E 001°17'0 0.0
2017-May-25 06:00N 51°58' E 001°17'0 0.0
2017-May-25 05:30N 51°58' E 001°17'0 0.0
2017-May-25 05:00N 51°58' E 001°17'0 0.0
2017-May-25 04:30N 51°58' E 001°17'0 0.0
2017-May-25 04:00N 51°58' E 001°17'0 0.0
2017-May-25 03:30N 51°58' E 001°17'0 0.0
2017-May-25 03:00N 51°58' E 001°17'0 0.0
2017-May-25 02:30N 51°58' E 001°17'0 0.0
2017-May-25 02:00N 51°58' E 001°17'0 0.0
2017-May-25 01:30N 51°58' E 001°17'0 0.0
2017-May-25 01:00N 51°58' E 001°17'0 0.0
2017-May-25 00:30N 51°58' E 001°17'0 0.0
2017-May-25 00:00N 51°58' E 001°17'0 0.0
2017-May-24 23:30N 51°58' E 001°17'0 0.0
2017-May-24 23:00N 51°58' E 001°17'0 0.0
2017-May-24 22:30N 51°58' E 001°17'0 0.0
2017-May-24 22:00N 51°58' E 001°17'0 0.0
2017-May-24 21:30N 51°58' E 001°17'0 0.0
2017-May-24 21:00N 51°58' E 001°17'0 0.0
2017-May-24 20:30N 51°58' E 001°17'0 0.0
2017-May-24 20:00N 51°58' E 001°17'0 0.0
2017-May-24 19:30N 51°58' E 001°17'0 0.0
2017-May-24 19:00N 51°58' E 001°17'0 0.0
2017-May-24 18:30N 51°58' E 001°17'0 0.2
2017-May-24 18:00N 51°58' E 001°18'1 2.2
2017-May-24 17:30N 51°57' E 001°19'5 9.2
2017-May-24 17:00N 51°56' E 001°26'611.4
2017-May-24 16:30N 51°53' E 001°34'5 9.5
2017-May-24 16:01N 51°51' E 001°41'3 6.3
2017-May-24 15:31N 51°51' E 001°46'510.0
2017-May-24 15:00N 51°46' E 001°48'611.6
2017-May-24 14:31N 51°40' E 001°49'1313.1
2017-May-24 13:30N 51°27' E 001°47'714.1
2017-May-24 13:00N 51°21' E 001°43'713.1
2017-May-24 12:31N 51°14' E 001°40'713.3
2017-May-24 12:00N 51°08' E 001°40'714.7
2017-May-24 11:30N 51°02' E 001°34'918.5
2017-May-24 11:00N 50°54' E 001°26'918.0
2017-May-24 10:30N 50°45' E 001°21'917.9
2017-May-24 10:00N 50°39' E 001°12'1017.9
2017-May-24 09:28N 50°32' E 001°01'918.1
2017-May-24 08:58N 50°29' E 000°48'1119.2
2017-May-24 08:25N 50°26' E 000°32'920.9
2017-May-24 08:00N 50°24' E 000°18'1121.3
2017-May-24 07:30N 50°21' E 000°02'1121.5
2017-May-24 07:00N 50°18' W 000°14'1121.8
2017-May-24 06:30N 50°15' W 000°30'1922.6
2017-May-24 05:39N 50°09' W 000°59'2024.2
2017-May-24 04:49N 50°04' W 001°29'1123.8
2017-May-24 04:21N 50°01' W 001°46'823.3
2017-May-24 04:00N 49°59' W 001°58'1222.6
2017-May-24 03:29N 49°57' W 002°16'1022.0
2017-May-24 03:00N 49°54' W 002°32'1121.8
2017-May-24 02:30N 49°51' W 002°48'1121.4
2017-May-24 02:00N 49°46' W 003°03'1121.4
2017-May-24 01:30N 49°41' W 003°17'1121.3
2017-May-24 01:00N 49°36' W 003°32'1021.3
2017-May-24 00:30N 49°31' W 003°46'1221.3
2017-May-23 23:57N 49°25' W 004°02'921.2
2017-May-23 23:30N 49°20' W 004°15'1021.0
2017-May-23 23:00N 49°15' W 004°28'1020.9
2017-May-23 22:30N 49°09' W 004°42'1020.7
2017-May-23 22:00N 49°03' W 004°55'1020.4
2017-May-23 21:30N 48°58' W 005°09'1220.3
2017-May-23 20:55N 48°54' W 005°25'1020.2
2017-May-23 20:26N 48°48' W 005°37'7520.4
2017-May-23 16:44N 47°41' W 006°28'35520.9
2017-May-22 23:47N 42°15' W 009°48'2920.8
2017-May-22 22:23N 41°46' W 009°48'1620.7
2017-May-22 21:36N 41°30' W 009°49'1720.8
2017-May-22 20:48N 41°13' W 009°49'620.5
2017-May-22 20:30N 41°07' W 009°49'3320.5
2017-May-22 18:52N 40°34' W 009°49'720.6
2017-May-22 18:31N 40°26' W 009°49'1120.6
2017-May-22 17:58N 40°15' W 009°49'1020.8
2017-May-22 17:30N 40°05' W 009°50'1120.7
2017-May-22 17:00N 39°55' W 009°50'1021.0
2017-May-22 16:30N 39°45' W 009°50'1121.0
2017-May-22 15:59N 39°34' W 009°50'1021.1
2017-May-22 15:29N 39°23' W 009°51'1020.9
2017-May-22 15:00N 39°13' W 009°51'2120.9
2017-May-22 14:00N 38°52' W 009°50'1020.6
2017-May-22 13:30N 38°42' W 009°50'1020.9
2017-May-22 13:00N 38°31' W 009°48'1121.2
2017-May-22 12:30N 38°21' W 009°45'1121.3
2017-May-22 12:01N 38°11' W 009°42'1121.3
2017-May-22 11:31N 38°00' W 009°39'1121.3
2017-May-22 11:00N 37°50' W 009°36'1121.4
2017-May-22 10:30N 37°39' W 009°34'1121.5
2017-May-22 10:00N 37°29' W 009°31'5419.6
2017-May-22 07:16N 36°42' W 008°58'621.5
2017-May-22 06:59N 36°40' W 008°51'1021.4
2017-May-22 06:30N 36°37' W 008°38'1821.2
2017-May-22 05:40N 36°32' W 008°17'1121.5
2017-May-22 05:10N 36°28' W 008°05'1321.3
2017-May-22 04:33N 36°24' W 007°50'121.4
2017-May-22 04:30N 36°23' W 007°48'8921.6
2017-May-22 00:23N 35°58' W 006°03'2120.3
2017-May-21 23:20N 35°57' W 005°37'720.7
2017-May-21 23:00N 35°60' W 005°29'816.1
2017-May-21 22:30N 36°02' W 005°19'816.5
2017-May-21 22:00N 36°04' W 005°09'21520.7
2017-May-21 11:37N 37°19' W 000°58'1121.7
2017-May-21 11:07N 37°25' W 000°47'221.8
2017-May-21 11:01N 37°27' W 000°45'1121.9
2017-May-21 10:30N 37°34' W 000°35'1121.6
2017-May-21 10:00N 37°43' W 000°26'1221.3
2017-May-21 09:28N 37°52' W 000°18'1021.5
2017-May-21 09:00N 38°01' W 000°11'1621.5
2017-May-21 08:16N 38°14' W 000°01'722.1
2017-May-21 07:57N 38°20' E 000°04'5122.1
2017-May-21 05:38N 39°04' E 000°38'322.4
2017-May-21 05:30N 39°07' E 000°39'1922.4
2017-May-21 04:39N 39°24' E 000°51'322.2
2017-May-21 04:30N 39°26' E 000°53'1322.0
2017-May-21 03:55N 39°38' E 001°01'922.3
2017-May-21 03:30N 39°46' E 001°07'1122.3
2017-May-21 03:00N 39°56' E 001°13'1122.2
2017-May-21 02:30N 40°06' E 001°20'1122.1
2017-May-21 02:00N 40°15' E 001°27'1121.9
2017-May-21 01:30N 40°25' E 001°34'1121.9
2017-May-21 01:01N 40°34' E 001°41'1122.1
2017-May-21 00:30N 40°44' E 001°47'1122.4
2017-May-21 00:00N 40°54' E 001°55'1122.6
2017-May-20 23:30N 41°04' E 002°02'1121.8
2017-May-20 23:00N 41°14' E 002°09'611.2
2017-May-20 22:30N 41°19' E 002°10'1 0.3
2017-May-20 19:42N 41°19' E 002°09'0 0.0
2017-May-20 19:30N 41°19' E 002°09'0 0.0
2017-May-20 18:48N 41°19' E 002°09'0 0.0
2017-May-20 10:06N 41°19' E 002°09'0 0.0
2017-May-20 09:36N 41°19' E 002°09'0 0.0
2017-May-20 09:30N 41°19' E 002°09'0 0.0
2017-May-20 09:00N 41°19' E 002°09'0 0.0
2017-May-20 08:30N 41°19' E 002°09'7 0.8
2017-May-19 23:06N 41°12' E 002°12'0 0.7
2017-May-19 23:00N 41°12' E 002°12'1 0.7
2017-May-19 22:18N 41°12' E 002°13'0 0.6
2017-May-19 21:54N 41°12' E 002°13'0 0.5
2017-May-19 21:27N 41°12' E 002°13'0 0.3
2017-May-19 21:00N 41°12' E 002°14'0 0.2
2017-May-19 20:30N 41°12' E 002°14'1 1.4
2017-May-19 20:00N 41°13' E 002°14'4 5.4
2017-May-19 19:10N 41°12' E 002°20'213.9
2017-May-19 19:00N 41°11' E 002°23'815.7
2017-May-19 18:30N 41°08' E 002°32'816.4
2017-May-19 18:00N 41°04' E 002°41'916.9
2017-May-19 17:30N 40°60' E 002°51'917.6
2017-May-19 17:00N 40°56' E 003°02'918.8
2017-May-19 16:30N 40°51' E 003°13'918.9
2017-May-19 16:00N 40°46' E 003°23'32920.8
2017-May-19 00:12N 38°02' E 009°31'422.2
2017-May-19 00:00N 37°60' E 009°36'1122.4
2017-May-18 23:30N 37°55' E 009°49'1122.2
2017-May-18 23:00N 37°50' E 010°02'1121.8
2017-May-18 22:30N 37°45' E 010°14'1121.4
2017-May-18 22:00N 37°41' E 010°27'1121.5
2017-May-18 21:30N 37°37' E 010°39'1121.4
2017-May-18 20:59N 37°33' E 010°52'1121.8
2017-May-18 20:29N 37°29' E 011°05'1222.1
2017-May-18 19:57N 37°24' E 011°18'1022.1
2017-May-18 19:30N 37°18' E 011°29'1122.0
2017-May-18 18:59N 37°13' E 011°41'1122.0
2017-May-18 18:30N 37°08' E 011°53'1121.6
2017-May-18 18:00N 37°03' E 012°05'1021.1
2017-May-18 17:30N 37°00' E 012°18'1120.8
2017-May-18 16:58N 36°57' E 012°31'1621.0
2017-May-18 16:11N 36°52' E 012°51'421.4
2017-May-18 16:00N 36°51' E 012°56'1021.5
2017-May-18 15:30N 36°48' E 013°08'1121.6
2017-May-18 15:00N 36°45' E 013°21'1121.5
2017-May-18 14:30N 36°41' E 013°34'2121.7
2017-May-18 13:30N 36°35' E 013°59'1121.5
2017-May-18 13:00N 36°31' E 014°12'1121.3
2017-May-18 12:30N 36°29' E 014°25'1121.3
2017-May-18 12:00N 36°26' E 014°38'1021.3
2017-May-18 11:30N 36°24' E 014°51'1121.2
2017-May-18 11:00N 36°22' E 015°04'1121.5
2017-May-18 10:30N 36°21' E 015°17'1121.4
2017-May-18 09:59N 36°18' E 015°30'  
Track history (hours):
 
Tides and Currents Weather Stations Pressure Air Temp Water Temp Dewpoint Dewpoint Depression Visibility Wind Speed Wind Dir Waves Ship Positions

MSC Maria Saveria

Last reported at 2017-May-27 15:30 UTC. Time now 2017-May-27 15:37 UTC.
Position N 53°32' E 009°54'.

Length 366 m; draft 13 m.

Type: Ship (hazmat cat A). MMSI: 372400000.

Date/timePositionNaut miles runAvg speedWind from/ knotsBaromVisibWave heightAir tempDewpointWater temp
2017-May-27 15:30N 53°32' E 009°54'0 0.0
2017-May-27 15:00N 53°32' E 009°54'0 0.0
2017-May-27 14:30N 53°32' E 009°54'0 0.0
2017-May-27 13:30N 53°32' E 009°54'0 0.0
2017-May-27 13:00N 53°32' E 009°54'0 0.0
2017-May-27 12:30N 53°32' E 009°54'0 0.0
2017-May-27 12:00N 53°32' E 009°54'0 0.0
2017-May-27 11:30N 53°32' E 009°54'0 0.0
2017-May-27 11:00N 53°32' E 009°54'0 0.0
2017-May-27 10:30N 53°32' E 009°54'0 0.0
2017-May-27 10:00N 53°32' E 009°54'0 0.0
2017-May-27 09:30N 53°32' E 009°54'0 0.0
2017-May-27 09:00N 53°32' E 009°54'0 0.0
2017-May-27 08:30N 53°32' E 009°54'0 0.0
2017-May-27 08:00N 53°32' E 009°54'0 0.0
2017-May-27 07:30N 53°32' E 009°54'0 0.0
2017-May-27 07:00N 53°32' E 009°54'0 0.0
2017-May-27 06:30N 53°32' E 009°54'0 0.0
2017-May-27 06:00N 53°32' E 009°54'0 0.0
2017-May-27 05:30N 53°32' E 009°54'0 0.0
2017-May-27 05:00N 53°32' E 009°54'0 0.0
2017-May-27 04:30N 53°32' E 009°54'0 0.0
2017-May-27 04:00N 53°32' E 009°54'0 0.0
2017-May-27 03:29N 53°32' E 009°54'0 0.0
2017-May-27 03:00N 53°32' E 009°54'0 0.0
2017-May-27 02:30N 53°32' E 009°54'0 0.0
2017-May-27 02:00N 53°32' E 009°54'0 0.0
2017-May-27 01:30N 53°32' E 009°54'0 0.0
2017-May-27 01:00N 53°32' E 009°54'0 0.0
2017-May-27 00:30N 53°32' E 009°54'0 0.0
2017-May-27 00:00N 53°32' E 009°54'0 0.0
2017-May-26 23:30N 53°32' E 009°54'0 0.0
2017-May-26 23:00N 53°32' E 009°54'0 0.0
2017-May-26 22:30N 53°32' E 009°54'0 0.0
2017-May-26 22:00N 53°32' E 009°54'0 0.0
2017-May-26 21:30N 53°32' E 009°54'0 0.0
2017-May-26 21:00N 53°32' E 009°54'0 0.0
2017-May-26 20:29N 53°32' E 009°54'0 0.0
2017-May-26 20:00N 53°32' E 009°54'0 0.0
2017-May-26 19:30N 53°32' E 009°54'0 0.0
2017-May-26 19:00N 53°32' E 009°54'0 0.0
2017-May-26 18:30N 53°32' E 009°54'0 0.0
2017-May-26 18:00N 53°32' E 009°54'0 0.0
2017-May-26 17:30N 53°32' E 009°54'0 0.6
2017-May-26 17:01N 53°32' E 009°54'2 3.6
2017-May-26 16:30N 53°33' E 009°51'4 8.3
2017-May-26 16:00N 53°34' E 009°44'4 8.0
2017-May-26 15:31N 53°35' E 009°38'611.8
2017-May-26 15:00N 53°39' E 009°31'714.1
2017-May-26 14:31N 53°45' E 009°25'1313.2
2017-May-26 13:30N 53°53' E 009°07'714.5
2017-May-26 13:00N 53°51' E 008°55'713.3
2017-May-26 12:30N 53°52' E 008°44'815.9
2017-May-26 12:00N 53°58' E 008°35'917.4
2017-May-26 11:29N 53°59' E 008°20'816.9
2017-May-26 11:00N 53°59' E 008°06'712.8
2017-May-26 10:27N 53°58' E 007°54'3 5.0
2017-May-26 09:54N 54°01' E 007°52'0 0.5
2017-May-26 09:30N 54°01' E 007°52'1 1.2
2017-May-26 08:50N 54°01' E 007°50'0 1.1
2017-May-26 08:28N 54°01' E 007°50'0 1.0
2017-May-26 08:00N 54°01' E 007°49'0 0.6
2017-May-26 07:30N 54°00' E 007°49'1 1.4
2017-May-26 07:00N 53°60' E 007°49'5 5.0
2017-May-26 06:02N 53°56' E 007°43'0 6.0
2017-May-26 06:00N 53°56' E 007°43'815.0
2017-May-26 05:27N 53°55' E 007°29'1119.5
2017-May-26 04:53N 53°53' E 007°11'819.2
2017-May-26 04:30N 53°51' E 006°58'918.2
2017-May-26 04:00N 53°49' E 006°44'918.2
2017-May-26 03:29N 53°46' E 006°28'919.1
2017-May-26 03:00N 53°44' E 006°13'1019.3
2017-May-26 02:30N 53°40' E 005°58'1119.4
2017-May-26 01:56N 53°37' E 005°40'819.1
2017-May-26 01:31N 53°35' E 005°27'918.2
2017-May-26 01:00N 53°33' E 005°12'919.0
2017-May-26 00:30N 53°29' E 004°57'1019.5
2017-May-26 00:01N 53°24' E 004°43'1019.6
2017-May-25 23:31N 53°15' E 004°36'1019.9
2017-May-25 23:01N 53°07' E 004°27'1019.9
2017-May-25 22:30N 52°58' E 004°19'1019.6
2017-May-25 22:00N 52°49' E 004°12'1019.1
2017-May-25 21:31N 52°42' E 004°02'1019.5
2017-May-25 21:01N 52°36' E 003°50'1019.2
2017-May-25 20:31N 52°28' E 003°39'1219.4
2017-May-25 19:53N 52°19' E 003°26'819.3
2017-May-25 19:28N 52°14' E 003°17'919.6
2017-May-25 19:00N 52°07' E 003°06'1019.9
2017-May-25 18:31N 51°60' E 002°56'1019.8
2017-May-25 18:01N 51°54' E 002°43'1121.0
2017-May-25 17:31N 51°54' E 002°26'1121.6
2017-May-25 17:00N 51°52' E 002°09'1121.4
2017-May-25 16:31N 51°49' E 001°53'918.7
2017-May-25 16:01N 51°52' E 001°38'5 9.8
2017-May-25 15:31N 51°55' E 001°33'713.9
2017-May-25 15:00N 51°56' E 001°22'3 6.6
2017-May-25 14:31N 51°57' E 001°18'0 0.2
2017-May-25 13:30N 51°58' E 001°17'0 0.0
2017-May-25 13:00N 51°58' E 001°17'0 0.0
2017-May-25 12:30N 51°58' E 001°17'0 0.0
2017-May-25 12:00N 51°58' E 001°17'0 0.0
2017-May-25 11:30N 51°58' E 001°17'0 0.0
2017-May-25 11:00N 51°58' E 001°17'0 0.0
2017-May-25 10:30N 51°58' E 001°17'0 0.0
2017-May-25 10:00N 51°58' E 001°17'0 0.0
2017-May-25 09:30N 51°58' E 001°17'0 0.0
2017-May-25 09:00N 51°58' E 001°17'0 0.0
2017-May-25 08:30N 51°58' E 001°17'0 0.0
2017-May-25 08:00N 51°58' E 001°17'0 0.0
2017-May-25 07:30N 51°58' E 001°17'0 0.0
2017-May-25 07:00N 51°58' E 001°17'0 0.0
2017-May-25 06:30N 51°58' E 001°17'0 0.0
2017-May-25 06:00N 51°58' E 001°17'0 0.0
2017-May-25 05:30N 51°58' E 001°17'0 0.0
2017-May-25 05:00N 51°58' E 001°17'0 0.0
2017-May-25 04:30N 51°58' E 001°17'0 0.0
2017-May-25 04:00N 51°58' E 001°17'0 0.0
2017-May-25 03:30N 51°58' E 001°17'0 0.0
2017-May-25 03:00N 51°58' E 001°17'0 0.0
2017-May-25 02:30N 51°58' E 001°17'0 0.0
2017-May-25 02:00N 51°58' E 001°17'0 0.0
2017-May-25 01:30N 51°58' E 001°17'0 0.0
2017-May-25 01:00N 51°58' E 001°17'0 0.0
2017-May-25 00:30N 51°58' E 001°17'0 0.0
2017-May-25 00:00N 51°58' E 001°17'0 0.0
2017-May-24 23:30N 51°58' E 001°17'0 0.0
2017-May-24 23:00N 51°58' E 001°17'0 0.0
2017-May-24 22:30N 51°58' E 001°17'0 0.0
2017-May-24 22:00N 51°58' E 001°17'0 0.0
2017-May-24 21:30N 51°58' E 001°17'0 0.0
2017-May-24 21:00N 51°58' E 001°17'0 0.0
2017-May-24 20:30N 51°58' E 001°17'0 0.0
2017-May-24 20:00N 51°58' E 001°17'0 0.0
2017-May-24 19:30N 51°58' E 001°17'0 0.0
2017-May-24 19:00N 51°58' E 001°17'0 0.0
2017-May-24 18:30N 51°58' E 001°17'0 0.2
2017-May-24 18:00N 51°58' E 001°18'1 2.2
2017-May-24 17:30N 51°57' E 001°19'5 9.2
2017-May-24 17:00N 51°56' E 001°26'611.4
2017-May-24 16:30N 51°53' E 001°34'5 9.5
2017-May-24 16:01N 51°51' E 001°41'3 6.3
2017-May-24 15:31N 51°51' E 001°46'510.0
2017-May-24 15:00N 51°46' E 001°48'611.6
2017-May-24 14:31N 51°40' E 001°49'1313.1
2017-May-24 13:30N 51°27' E 001°47'714.1
2017-May-24 13:00N 51°21' E 001°43'713.1
2017-May-24 12:31N 51°14' E 001°40'713.3
2017-May-24 12:00N 51°08' E 001°40'714.7
2017-May-24 11:30N 51°02' E 001°34'918.5
2017-May-24 11:00N 50°54' E 001°26'918.0
2017-May-24 10:30N 50°45' E 001°21'917.9
2017-May-24 10:00N 50°39' E 001°12'1017.9
2017-May-24 09:28N 50°32' E 001°01'918.1
2017-May-24 08:58N 50°29' E 000°48'1119.2
2017-May-24 08:25N 50°26' E 000°32'920.9
2017-May-24 08:00N 50°24' E 000°18'1121.3
2017-May-24 07:30N 50°21' E 000°02'1121.5
2017-May-24 07:00N 50°18' W 000°14'1121.8
2017-May-24 06:30N 50°15' W 000°30'1922.6
2017-May-24 05:39N 50°09' W 000°59'2024.2
2017-May-24 04:49N 50°04' W 001°29'1123.8
2017-May-24 04:21N 50°01' W 001°46'823.3
2017-May-24 04:00N 49°59' W 001°58'1222.6
2017-May-24 03:29N 49°57' W 002°16'1022.0
2017-May-24 03:00N 49°54' W 002°32'1121.8
2017-May-24 02:30N 49°51' W 002°48'1121.4
2017-May-24 02:00N 49°46' W 003°03'1121.4
2017-May-24 01:30N 49°41' W 003°17'1121.3
2017-May-24 01:00N 49°36' W 003°32'1021.3
2017-May-24 00:30N 49°31' W 003°46'1221.3
2017-May-23 23:57N 49°25' W 004°02'921.2
2017-May-23 23:30N 49°20' W 004°15'1021.0
2017-May-23 23:00N 49°15' W 004°28'1020.9
2017-May-23 22:30N 49°09' W 004°42'1020.7
2017-May-23 22:00N 49°03' W 004°55'1020.4
2017-May-23 21:30N 48°58' W 005°09'1220.3
2017-May-23 20:55N 48°54' W 005°25'1020.2
2017-May-23 20:26N 48°48' W 005°37'7520.4
2017-May-23 16:44N 47°41' W 006°28'35520.9
2017-May-22 23:47N 42°15' W 009°48'2920.8
2017-May-22 22:23N 41°46' W 009°48'1620.7
2017-May-22 21:36N 41°30' W 009°49'1720.8
2017-May-22 20:48N 41°13' W 009°49'620.5
2017-May-22 20:30N 41°07' W 009°49'3320.5
2017-May-22 18:52N 40°34' W 009°49'720.6
2017-May-22 18:31N 40°26' W 009°49'1120.6
2017-May-22 17:58N 40°15' W 009°49'1020.8
2017-May-22 17:30N 40°05' W 009°50'1120.7
2017-May-22 17:00N 39°55' W 009°50'1021.0
2017-May-22 16:30N 39°45' W 009°50'1121.0
2017-May-22 15:59N 39°34' W 009°50'1021.1
2017-May-22 15:29N 39°23' W 009°51'1020.9
2017-May-22 15:00N 39°13' W 009°51'2120.9
2017-May-22 14:00N 38°52' W 009°50'1020.6
2017-May-22 13:30N 38°42' W 009°50'1020.9
2017-May-22 13:00N 38°31' W 009°48'1121.2
2017-May-22 12:30N 38°21' W 009°45'1121.3
2017-May-22 12:01N 38°11' W 009°42'1121.3
2017-May-22 11:31N 38°00' W 009°39'1121.3
2017-May-22 11:00N 37°50' W 009°36'1121.4
2017-May-22 10:30N 37°39' W 009°34'1121.5
2017-May-22 10:00N 37°29' W 009°31'5419.6
2017-May-22 07:16N 36°42' W 008°58'621.5
2017-May-22 06:59N 36°40' W 008°51'1021.4
2017-May-22 06:30N 36°37' W 008°38'1821.2
2017-May-22 05:40N 36°32' W 008°17'1121.5
2017-May-22 05:10N 36°28' W 008°05'1321.3
2017-May-22 04:33N 36°24' W 007°50'121.4
2017-May-22 04:30N 36°23' W 007°48'8921.6
2017-May-22 00:23N 35°58' W 006°03'2120.3
2017-May-21 23:20N 35°57' W 005°37'720.7
2017-May-21 23:00N 35°60' W 005°29'816.1
2017-May-21 22:30N 36°02' W 005°19'816.5
2017-May-21 22:00N 36°04' W 005°09'21520.7
2017-May-21 11:37N 37°19' W 000°58'1121.7
2017-May-21 11:07N 37°25' W 000°47'221.8
2017-May-21 11:01N 37°27' W 000°45'1121.9
2017-May-21 10:30N 37°34' W 000°35'1121.6
2017-May-21 10:00N 37°43' W 000°26'1221.3
2017-May-21 09:28N 37°52' W 000°18'1021.5
2017-May-21 09:00N 38°01' W 000°11'1621.5
2017-May-21 08:16N 38°14' W 000°01'722.1
2017-May-21 07:57N 38°20' E 000°04'5122.1
2017-May-21 05:38N 39°04' E 000°38'322.4
2017-May-21 05:30N 39°07' E 000°39'1922.4
2017-May-21 04:39N 39°24' E 000°51'322.2
2017-May-21 04:30N 39°26' E 000°53'1322.0
2017-May-21 03:55N 39°38' E 001°01'922.3
2017-May-21 03:30N 39°46' E 001°07'1122.3
2017-May-21 03:00N 39°56' E 001°13'1122.2
2017-May-21 02:30N 40°06' E 001°20'1122.1
2017-May-21 02:00N 40°15' E 001°27'1121.9
2017-May-21 01:30N 40°25' E 001°34'1121.9
2017-May-21 01:01N 40°34' E 001°41'1122.1
2017-May-21 00:30N 40°44' E 001°47'1122.4
2017-May-21 00:00N 40°54' E 001°55'1122.6
2017-May-20 23:30N 41°04' E 002°02'1121.8
2017-May-20 23:00N 41°14' E 002°09'611.2
2017-May-20 22:30N 41°19' E 002°10'1 0.3
2017-May-20 19:42N 41°19' E 002°09'0 0.0
2017-May-20 19:30N 41°19' E 002°09'0 0.0
2017-May-20 18:48N 41°19' E 002°09'0 0.0
2017-May-20 10:06N 41°19' E 002°09'0 0.0
2017-May-20 09:36N 41°19' E 002°09'0 0.0
2017-May-20 09:30N 41°19' E 002°09'0 0.0
2017-May-20 09:00N 41°19' E 002°09'0 0.0
2017-May-20 08:30N 41°19' E 002°09'7 0.8
2017-May-19 23:06N 41°12' E 002°12'0 0.7
2017-May-19 23:00N 41°12' E 002°12'1 0.7
2017-May-19 22:18N 41°12' E 002°13'0 0.6
2017-May-19 21:54N 41°12' E 002°13'0 0.5
2017-May-19 21:27N 41°12' E 002°13'0 0.3
2017-May-19 21:00N 41°12' E 002°14'0 0.2
2017-May-19 20:30N 41°12' E 002°14'1 1.4
2017-May-19 20:00N 41°13' E 002°14'4 5.4
2017-May-19 19:10N 41°12' E 002°20'213.9
2017-May-19 19:00N 41°11' E 002°23'815.7
2017-May-19 18:30N 41°08' E 002°32'816.4
2017-May-19 18:00N 41°04' E 002°41'916.9
2017-May-19 17:30N 40°60' E 002°51'917.6
2017-May-19 17:00N 40°56' E 003°02'918.8
2017-May-19 16:30N 40°51' E 003°13'918.9
2017-May-19 16:00N 40°46' E 003°23'32920.8
2017-May-19 00:12N 38°02' E 009°31'422.2
2017-May-19 00:00N 37°60' E 009°36'1122.4
2017-May-18 23:30N 37°55' E 009°49'1122.2
2017-May-18 23:00N 37°50' E 010°02'1121.8
2017-May-18 22:30N 37°45' E 010°14'1121.4
2017-May-18 22:00N 37°41' E 010°27'1121.5
2017-May-18 21:30N 37°37' E 010°39'1121.4
2017-May-18 20:59N 37°33' E 010°52'1121.8
2017-May-18 20:29N 37°29' E 011°05'1222.1
2017-May-18 19:57N 37°24' E 011°18'1022.1
2017-May-18 19:30N 37°18' E 011°29'1122.0
2017-May-18 18:59N 37°13' E 011°41'1122.0
2017-May-18 18:30N 37°08' E 011°53'1121.6
2017-May-18 18:00N 37°03' E 012°05'1021.1
2017-May-18 17:30N 37°00' E 012°18'1120.8
2017-May-18 16:58N 36°57' E 012°31'1621.0
2017-May-18 16:11N 36°52' E 012°51'421.4
2017-May-18 16:00N 36°51' E 012°56'1021.5
2017-May-18 15:30N 36°48' E 013°08'1121.6
2017-May-18 15:00N 36°45' E 013°21'1121.5
2017-May-18 14:30N 36°41' E 013°34'2121.7
2017-May-18 13:30N 36°35' E 013°59'1121.5
2017-May-18 13:00N 36°31' E 014°12'1121.3
2017-May-18 12:30N 36°29' E 014°25'1121.3
2017-May-18 12:00N 36°26' E 014°38'1021.3
2017-May-18 11:30N 36°24' E 014°51'1121.2
2017-May-18 11:00N 36°22' E 015°04'1121.5
2017-May-18 10:30N 36°21' E 015°17'1121.4
2017-May-18 09:59N 36°18' E 015°30'  

Dump ship's entire track history